Time;durP1;ratioP1;P1;durP2;ratioP2;P2;SDS_P1;SDS_P2;PMS_P1;PMS_P2;Temp;Humidity;BMP_temperature;BMP_pressure;BME280_temperature;BME280_humidity;BME280_pressure;Samples;Min_cycle;Max_cycle;Signal;HPM_P1;HPM_P2
2021/04/17 00:00:57;;;;;;;0.10;0.10;;;13.20;63.10;;;;;;4231252;28;20046;-44
2021/04/17 00:03:18;;;;;;;0.00;0.00;;;13.10;63.10;;;;;;4190478;28;20123;-44
2021/04/17 00:05:38;;;;;;;0.00;0.00;;;13.20;63.20;;;;;;4227021;28;20043;-44
2021/04/17 00:08:00;;;;;;;0.13;0.13;;;13.20;63.20;;;;;;4226789;28;20419;-44
2021/04/17 00:10:21;;;;;;;0.00;0.00;;;13.20;63.20;;;;;;4204947;27;20036;-44
2021/04/17 00:12:43;;;;;;;0.10;0.10;;;13.20;63.20;;;;;;4200890;28;20047;-44
2021/04/17 00:15:05;;;;;;;0.00;0.00;;;13.10;63.20;;;;;;4226568;28;20549;-45
2021/04/17 00:17:28;;;;;;;0.00;0.00;;;13.10;63.30;;;;;;4226767;28;20044;-46
2021/04/17 00:19:52;;;;;;;0.00;0.00;;;13.10;63.30;;;;;;4226518;28;20051;-44
2021/04/17 00:22:14;;;;;;;0.00;0.00;;;13.10;63.30;;;;;;4208502;28;20055;-44
2021/04/17 00:24:35;;;;;;;0.00;0.00;;;13.10;63.30;;;;;;4192838;28;20556;-45
2021/04/17 00:26:57;;;;;;;0.00;0.00;;;13.10;63.30;;;;;;4195210;28;20052;-43
2021/04/17 00:29:17;;;;;;;;;;;13.10;63.40;;;;;;4222968;28;20043;-44
2021/04/17 00:31:41;;;;;;;0.00;0.00;;;13.10;63.50;;;;;;4226308;28;19961;-44
2021/04/17 00:34:03;;;;;;;0.00;0.00;;;13.10;63.40;;;;;;4226651;28;20043;-47
2021/04/17 00:36:24;;;;;;;0.40;0.30;;;13.10;63.50;;;;;;4226518;28;20497;-45
2021/04/17 00:38:45;;;;;;;0.05;0.05;;;13.10;63.50;;;;;;4227532;27;20055;-44
2021/04/17 00:41:06;;;;;;;0.35;0.35;;;13.00;63.50;;;;;;4243220;27;20047;-44
2021/04/17 00:43:29;;;;;;;0.00;0.00;;;13.00;63.50;;;;;;4211700;27;20058;-44
2021/04/17 00:45:50;;;;;;;0.00;0.00;;;13.00;63.60;;;;;;4210606;27;20062;-45
2021/04/17 00:48:13;;;;;;;0.00;0.00;;;13.00;63.60;;;;;;4209955;27;20059;-45
2021/04/17 00:50:35;;;;;;;0.10;0.10;;;13.00;63.60;;;;;;4209955;28;20145;-45
2021/04/17 00:52:55;;;;;;;0.00;0.00;;;13.00;63.70;;;;;;4209530;28;20128;-44
2021/04/17 00:55:18;;;;;;;0.00;0.00;;;13.00;63.70;;;;;;4208472;28;20584;-44
2021/04/17 00:57:39;;;;;;;0.10;0.10;;;13.00;63.80;;;;;;4233014;27;20116;-44
2021/04/17 01:00:01;;;;;;;0.00;0.00;;;13.00;63.70;;;;;;4240029;27;20076;-43
2021/04/17 01:02:24;;;;;;;;;;;13.00;63.90;;;;;;4201810;28;20051;-44
2021/04/17 01:04:49;;;;;;;0.00;0.00;;;13.00;63.90;;;;;;4209158;28;19973;-43
2021/04/17 01:07:18;;;;;;;0.00;0.00;;;12.90;63.90;;;;;;4209035;28;20051;-43
2021/04/17 01:09:45;;;;;;;0.00;0.00;;;12.90;64.00;;;;;;4209398;28;20113;-43
2021/04/17 01:12:12;;;;;;;0.08;0.08;;;12.90;64.00;;;;;;4218107;28;20043;-43
2021/04/17 01:14:34;;;;;;;0.00;0.00;;;12.90;64.00;;;;;;4222444;28;20066;-44
2021/04/17 01:16:57;;;;;;;0.00;0.00;;;12.90;64.10;;;;;;4216657;28;20478;-45
2021/04/17 01:19:30;;;;;;;0.10;0.10;;;12.90;64.10;;;;;;4225496;28;20050;-48
2021/04/17 01:21:51;;;;;;;0.00;0.00;;;12.90;64.20;;;;;;4225661;28;20490;-44
2021/04/17 01:24:16;;;;;;;5.03;1.00;;;12.90;64.20;;;;;;4225607;28;20507;-44
2021/04/17 01:26:38;;;;;;;0.00;0.00;;;12.90;64.30;;;;;;4211699;28;20119;-45
2021/04/17 01:28:59;;;;;;;0.00;0.00;;;12.90;64.30;;;;;;4192716;28;20086;-44
2021/04/17 01:31:22;;;;;;;;;;;12.90;64.60;;;;;;4193070;28;20411;-44
2021/04/17 01:33:47;;;;;;;0.00;0.00;;;12.90;64.90;;;;;;4194663;28;19931;-45
2021/04/17 01:36:10;;;;;;;0.00;0.00;;;12.80;64.70;;;;;;4202960;28;20153;-44
2021/04/17 01:38:34;;;;;;;0.00;0.00;;;12.80;64.60;;;;;;4225716;28;20048;-45
2021/04/17 01:40:59;;;;;;;0.00;0.00;;;12.90;64.70;;;;;;4225978;28;20081;-44
2021/04/17 01:43:23;;;;;;;0.00;0.00;;;12.90;64.70;;;;;;4219329;28;20058;-44
2021/04/17 01:45:45;;;;;;;0.00;0.00;;;12.80;64.80;;;;;;4213883;28;20417;-44
2021/04/17 01:48:07;;;;;;;0.00;0.00;;;12.90;64.80;;;;;;4225406;28;20048;-44
2021/04/17 01:50:31;;;;;;;0.08;0.08;;;12.80;64.70;;;;;;4225537;28;20048;-44
2021/04/17 01:52:54;;;;;;;2.92;0.47;;;12.80;64.90;;;;;;4225384;28;20482;-43
2021/04/17 01:55:16;;;;;;;0.00;0.00;;;12.80;64.90;;;;;;4225032;28;20055;-44
2021/04/17 01:57:39;;;;;;;0.00;0.00;;;12.80;65.00;;;;;;4234532;27;20043;-46
2021/04/17 02:00:00;;;;;;;0.00;0.00;;;12.80;64.80;;;;;;4231162;27;20561;-44
2021/04/17 02:02:21;;;;;;;0.00;0.00;;;12.80;64.60;;;;;;4208899;28;20067;-44
2021/04/17 02:04:42;;;;;;;0.05;0.05;;;12.80;64.60;;;;;;4209322;27;20131;-46
2021/04/17 02:07:04;;;;;;;0.00;0.00;;;12.80;64.70;;;;;;4208939;28;20089;-44
2021/04/17 02:09:25;;;;;;;0.00;0.00;;;12.80;64.80;;;;;;4224918;28;20048;-44
2021/04/17 02:11:46;;;;;;;0.00;0.00;;;12.80;64.90;;;;;;4224557;28;20462;-44
2021/04/17 02:14:07;;;;;;;0.00;0.00;;;12.70;64.90;;;;;;4225011;28;20059;-45
2021/04/17 02:16:35;;;;;;;1.75;1.65;;;12.80;65.00;;;;;;4225142;28;20413;-46
2021/04/17 02:18:59;;;;;;;0.00;0.00;;;12.70;65.00;;;;;;4224879;28;20058;-47
2021/04/17 02:21:26;;;;;;;0.00;0.00;;;12.70;65.00;;;;;;4225006;28;20053;-47
2021/04/17 02:23:47;;;;;;;0.00;0.00;;;12.70;65.00;;;;;;4224709;28;20116;-44
2021/04/17 02:26:08;;;;;;;0.00;0.00;;;12.70;65.00;;;;;;4201022;28;20048;-44
2021/04/17 02:28:30;;;;;;;0.00;0.00;;;12.70;65.10;;;;;;4218994;28;20054;-44
2021/04/17 02:30:52;;;;;;;0.00;0.00;;;12.70;65.20;;;;;;4224881;28;20514;-44
2021/04/17 02:33:13;;;;;;;0.22;0.22;;;12.70;65.30;;;;;;4224656;28;20420;-45
2021/04/17 02:35:34;;;;;;;0.00;0.00;;;12.70;65.20;;;;;;4224877;28;20493;-45
2021/04/17 02:37:55;;;;;;;0.00;0.00;;;12.60;65.20;;;;;;4224862;28;20044;-44
2021/04/17 02:40:16;;;;;;;0.10;0.10;;;12.60;65.30;;;;;;4220037;28;20490;-45
2021/04/17 02:42:37;;;;;;;0.00;0.00;;;12.60;65.40;;;;;;4207226;28;20044;-44
2021/04/17 02:44:58;;;;;;;0.00;0.00;;;12.60;65.40;;;;;;4208320;28;20047;-44
2021/04/17 02:47:19;;;;;;;0.00;0.00;;;12.60;65.40;;;;;;4224382;28;20044;-47
2021/04/17 02:49:41;;;;;;;0.00;0.00;;;12.60;65.50;;;;;;4224270;28;20048;-43
2021/04/17 02:52:02;;;;;;;0.00;0.00;;;12.60;65.50;;;;;;4224394;28;20043;-44
2021/04/17 02:54:23;;;;;;;0.25;0.25;;;12.60;65.50;;;;;;4214558;27;20097;-44
2021/04/17 02:56:44;;;;;;;0.00;0.00;;;12.60;65.60;;;;;;4208215;28;20383;-44
2021/04/17 02:59:05;;;;;;;0.00;0.00;;;12.50;65.50;;;;;;4207426;28;20494;-45
2021/04/17 03:01:26;;;;;;;0.00;0.00;;;12.60;65.70;;;;;;4207693;28;20048;-44
2021/04/17 03:03:47;;;;;;;0.30;0.30;;;12.60;65.70;;;;;;4207541;28;20535;-46
2021/04/17 03:06:09;;;;;;;0.00;0.00;;;12.60;65.70;;;;;;4207429;28;20109;-44
2021/04/17 03:08:30;;;;;;;0.00;0.00;;;12.50;65.70;;;;;;4207466;28;20469;-46
2021/04/17 03:10:52;;;;;;;0.00;0.00;;;12.60;65.80;;;;;;4211278;28;20043;-46
2021/04/17 03:13:13;;;;;;;;;;;12.50;65.80;;;;;;4224541;28;20043;-44
2021/04/17 03:15:34;;;;;;;0.00;0.00;;;12.50;65.90;;;;;;4208727;28;19977;-43
2021/04/17 03:17:56;;;;;;;0.00;0.00;;;12.50;65.80;;;;;;4224148;28;20074;-44
2021/04/17 03:20:17;;;;;;;0.00;0.00;;;12.50;65.90;;;;;;4224150;28;20128;-44
2021/04/17 03:22:39;;;;;;;0.00;0.00;;;12.50;65.90;;;;;;4223557;28;20528;-43
2021/04/17 03:25:01;;;;;;;0.93;0.93;;;12.50;65.90;;;;;;4207357;28;20117;-44
2021/04/17 03:27:22;;;;;;;0.00;0.00;;;12.50;65.90;;;;;;4219107;28;20044;-46
2021/04/17 03:29:43;;;;;;;0.00;0.00;;;12.50;65.90;;;;;;4224064;28;20055;-44
2021/04/17 03:32:04;;;;;;;0.00;0.00;;;12.50;65.90;;;;;;4224004;28;20880;-49
2021/04/17 03:34:25;;;;;;;0.00;0.00;;;12.50;66.00;;;;;;4223868;28;20489;-48
2021/04/17 03:36:46;;;;;;;0.00;0.00;;;12.50;65.90;;;;;;4223930;28;20047;-47
2021/04/17 03:39:08;;;;;;;0.00;0.00;;;12.50;65.90;;;;;;4225266;28;20478;-44
2021/04/17 03:41:29;;;;;;;0.00;0.00;;;12.50;66.00;;;;;;4211270;28;20606;-45
2021/04/17 03:43:49;;;;;;;0.00;0.00;;;12.50;66.00;;;;;;4237648;27;20067;-44
2021/04/17 03:46:10;;;;;;;0.00;0.00;;;12.50;66.10;;;;;;4228717;27;20072;-45
2021/04/17 03:48:32;;;;;;;0.00;0.00;;;12.50;66.10;;;;;;4244546;27;20143;-45
2021/04/17 03:50:53;;;;;;;;;;;12.50;66.20;;;;;;4241560;27;20047;-44
2021/04/17 03:53:14;;;;;;;0.00;0.00;;;12.40;66.20;;;;;;4244134;27;19923;-43
2021/04/17 03:55:38;;;;;;;;;;;12.40;66.20;;;;;;4218445;27;20055;-46
2021/04/17 03:57:59;;;;;;;0.00;0.00;;;12.40;66.30;;;;;;4210437;28;19947;-46
2021/04/17 04:00:21;;;;;;;0.00;0.00;;;12.40;66.30;;;;;;4210575;28;20093;-43
2021/04/17 04:02:42;;;;;;;0.00;0.00;;;12.40;66.30;;;;;;4218619;28;20391;-44
2021/04/17 04:05:03;;;;;;;0.00;0.00;;;12.40;66.40;;;;;;4227441;28;20047;-47
2021/04/17 04:07:24;;;;;;;0.00;0.00;;;12.40;66.40;;;;;;4244137;27;20054;-44
2021/04/17 04:09:45;;;;;;;0.00;0.00;;;12.40;66.40;;;;;;4225274;27;20055;-45
2021/04/17 04:12:08;;;;;;;0.00;0.00;;;12.40;66.40;;;;;;4215261;27;20048;-45
2021/04/17 04:14:30;;;;;;;0.00;0.00;;;12.40;66.40;;;;;;4224295;27;20557;-43
2021/04/17 04:16:51;;;;;;;0.00;0.00;;;12.40;66.40;;;;;;4213572;27;20113;-44
2021/04/17 04:19:12;;;;;;;0.00;0.00;;;12.40;66.40;;;;;;4193068;28;20547;-44
2021/04/17 04:21:35;;;;;;;0.00;0.00;;;12.40;66.40;;;;;;4209612;28;20071;-44
2021/04/17 04:23:56;;;;;;;0.00;0.00;;;12.40;66.40;;;;;;4226944;28;20413;-46
2021/04/17 04:26:17;;;;;;;0.20;0.20;;;12.40;66.40;;;;;;4222106;28;20048;-45
2021/04/17 04:28:39;;;;;;;0.00;0.00;;;12.30;66.30;;;;;;4226864;28;20052;-44
2021/04/17 04:31:00;;;;;;;0.08;0.08;;;12.30;66.30;;;;;;4226752;28;20043;-45
2021/04/17 04:33:21;;;;;;;0.00;0.00;;;12.30;66.40;;;;;;4226594;28;20058;-46
2021/04/17 04:35:42;;;;;;;0.10;0.10;;;12.30;66.40;;;;;;4192919;28;20070;-43
2021/04/17 04:38:03;;;;;;;0.00;0.00;;;12.30;66.50;;;;;;4177672;28;20052;-44
2021/04/17 04:40:24;;;;;;;0.00;0.00;;;12.30;66.50;;;;;;4202037;28;20067;-43
2021/04/17 04:42:45;;;;;;;0.00;0.00;;;12.30;66.50;;;;;;4225728;28;20056;-44
2021/04/17 04:45:10;;;;;;;0.00;0.00;;;12.30;66.50;;;;;;4217524;28;20056;-45
2021/04/17 04:47:30;;;;;;;0.00;0.00;;;12.30;66.50;;;;;;4223928;28;20413;-44
2021/04/17 04:49:52;;;;;;;0.00;0.00;;;12.30;66.60;;;;;;4225569;28;20052;-45
2021/04/17 04:52:14;;;;;;;0.00;0.00;;;12.30;66.60;;;;;;4225975;28;20052;-44
2021/04/17 04:54:35;;;;;;;0.00;0.00;;;12.30;66.50;;;;;;4220797;28;20807;-45
2021/04/17 04:56:56;;;;;;;0.00;0.00;;;12.30;66.50;;;;;;4200220;28;20059;-43
2021/04/17 04:59:17;;;;;;;0.30;0.25;;;12.30;66.50;;;;;;4191430;28;20136;-44
2021/04/17 05:01:39;;;;;;;0.00;0.00;;;12.30;66.60;;;;;;4193029;28;20059;-43
2021/04/17 05:04:00;;;;;;;0.10;0.10;;;12.30;66.50;;;;;;4192852;28;20049;-45
2021/04/17 05:06:21;;;;;;;0.00;0.00;;;12.30;66.50;;;;;;4192993;28;20048;-45
2021/04/17 05:08:42;;;;;;;0.13;0.13;;;12.30;66.60;;;;;;4192710;28;20040;-44
2021/04/17 05:11:03;;;;;;;0.00;0.00;;;12.30;66.60;;;;;;4200304;28;20135;-45
2021/04/17 05:13:24;;;;;;;0.00;0.00;;;12.30;66.60;;;;;;4193398;28;20041;-43
2021/04/17 05:15:44;;;;;;;0.00;0.00;;;12.30;66.60;;;;;;4225744;28;20097;-44
2021/04/17 05:18:06;;;;;;;0.00;0.00;;;12.30;66.60;;;;;;4225602;28;20044;-44
2021/04/17 05:20:27;;;;;;;0.00;0.00;;;12.30;66.40;;;;;;4225682;28;20123;-43
2021/04/17 05:22:48;;;;;;;0.10;0.10;;;12.40;66.40;;;;;;4225587;28;20055;-43
2021/04/17 05:25:10;;;;;;;0.10;0.10;;;12.40;66.40;;;;;;4225289;28;20513;-44
2021/04/17 05:27:31;;;;;;;0.47;0.47;;;12.40;66.30;;;;;;4225515;28;20494;-43
2021/04/17 05:29:52;;;;;;;0.00;0.00;;;12.40;66.30;;;;;;4225300;28;20067;-44
2021/04/17 05:32:13;;;;;;;0.00;0.00;;;12.40;66.40;;;;;;4209189;28;20036;-44
2021/04/17 05:34:35;;;;;;;0.00;0.00;;;12.40;66.90;;;;;;4208233;28;20052;-43
2021/04/17 05:36:57;;;;;;;0.22;0.22;;;12.50;67.60;;;;;;4198204;28;20044;-43
2021/04/17 05:39:18;;;;;;;0.00;0.00;;;12.50;67.20;;;;;;4225061;28;20036;-43
2021/04/17 05:41:39;;;;;;;0.32;0.25;;;12.60;67.10;;;;;;4194625;28;20051;-44
2021/04/17 05:44:10;;;;;;;0.00;0.00;;;12.60;67.20;;;;;;4192075;28;20131;-44
2021/04/17 05:46:31;;;;;;;0.00;0.00;;;12.60;66.90;;;;;;4191423;28;20136;-44
2021/04/17 05:48:52;;;;;;;0.00;0.00;;;12.60;66.80;;;;;;4191857;28;20063;-45
2021/04/17 05:51:14;;;;;;;0.00;0.00;;;12.60;66.60;;;;;;4206209;28;20071;-47
2021/04/17 05:53:35;;;;;;;0.00;0.00;;;12.60;66.60;;;;;;4225206;28;20534;-44
2021/04/17 05:55:56;;;;;;;14.60;1.02;;;12.60;66.60;;;;;;4216408;28;20405;-44
2021/04/17 05:58:17;;;;;;;0.00;0.00;;;12.60;66.70;;;;;;4191049;28;20056;-43
2021/04/17 06:00:38;;;;;;;0.00;0.00;;;12.60;66.60;;;;;;4201537;28;20044;-43
2021/04/17 06:03:01;;;;;;;0.00;0.00;;;12.60;67.60;;;;;;4224753;28;20055;-43
2021/04/17 06:05:23;;;;;;;0.10;0.10;;;12.60;66.80;;;;;;4225032;28;20050;-44
2021/04/17 06:07:45;;;;;;;0.22;0.22;;;12.50;66.90;;;;;;4224957;28;20555;-43
2021/04/17 06:10:08;;;;;;;0.00;0.00;;;12.50;66.90;;;;;;4225060;28;20070;-43
2021/04/17 06:12:29;;;;;;;0.00;0.00;;;12.50;67.00;;;;;;4224724;28;20055;-44
2021/04/17 06:14:50;;;;;;;0.00;0.00;;;12.50;67.10;;;;;;4224986;28;20051;-45
2021/04/17 06:17:12;;;;;;;0.10;0.10;;;12.50;67.10;;;;;;4224842;28;20047;-44
2021/04/17 06:19:33;;;;;;;0.00;0.00;;;12.50;67.20;;;;;;4224410;28;20054;-45
2021/04/17 06:21:54;;;;;;;;;;;12.50;67.10;;;;;;4225528;28;20055;-46
2021/04/17 06:24:15;;;;;;;0.20;0.20;;;12.60;67.20;;;;;;4217530;28;19923;-44
2021/04/17 06:26:38;;;;;;;0.00;0.00;;;12.60;67.40;;;;;;4224389;28;20043;-43
2021/04/17 06:29:00;;;;;;;0.35;0.35;;;12.70;68.50;;;;;;4224489;28;20153;-43
2021/04/17 06:31:21;;;;;;;0.82;0.82;;;12.70;70.30;;;;;;4224419;28;20057;-44
2021/04/17 06:33:42;;;;;;;;;;;12.70;74.10;;;;;;4225156;28;20055;-44
2021/04/17 06:36:04;;;;;;;1.08;1.08;;;12.80;73.90;;;;;;4224185;28;19943;-44
2021/04/17 06:38:25;;;;;;;0.00;0.00;;;12.80;72.10;;;;;;4224349;28;20050;-42
2021/04/17 06:40:49;;;;;;;;;;;12.90;71.90;;;;;;4224879;28;20071;-45
2021/04/17 06:43:12;;;;;;;4.43;1.55;;;12.90;72.00;;;;;;4230892;27;19928;-45
2021/04/17 06:45:36;;;;;;;0.20;0.20;;;12.90;71.30;;;;;;4196540;28;20050;-45
2021/04/17 06:47:58;;;;;;;0.20;0.20;;;12.90;71.90;;;;;;4208522;28;20043;-47
2021/04/17 06:50:20;;;;;;;0.10;0.10;;;12.90;71.00;;;;;;4209844;28;20043;-44
2021/04/17 06:52:42;;;;;;;0.20;0.20;;;12.90;71.00;;;;;;4212955;28;20489;-44
2021/04/17 06:55:04;;;;;;;0.00;0.00;;;12.90;71.30;;;;;;4211753;28;20588;-44
2021/04/17 06:57:26;;;;;;;0.00;0.00;;;12.90;71.10;;;;;;4222478;28;20501;-43
2021/04/17 06:59:48;;;;;;;0.00;0.00;;;13.00;71.20;;;;;;4220957;28;20075;-44
2021/04/17 07:02:15;;;;;;;0.00;0.00;;;13.00;71.20;;;;;;4221241;27;20048;-44
2021/04/17 07:04:37;;;;;;;0.00;0.00;;;13.00;71.20;;;;;;4223737;28;20044;-43
2021/04/17 07:06:58;;;;;;;0.80;0.80;;;13.00;71.10;;;;;;4207097;28;20048;-44
2021/04/17 07:09:21;;;;;;;0.00;0.00;;;13.10;71.20;;;;;;4206934;28;20044;-44
2021/04/17 07:11:42;;;;;;;0.00;0.00;;;13.10;71.00;;;;;;4207228;28;20048;-45
2021/04/17 07:14:10;;;;;;;0.00;0.00;;;13.10;71.80;;;;;;4210653;27;20072;-45
2021/04/17 07:16:31;;;;;;;0.00;0.00;;;13.10;70.90;;;;;;4192328;28;20486;-45
2021/04/17 07:18:52;;;;;;;0.00;0.00;;;13.10;70.90;;;;;;4221364;28;20051;-45
2021/04/17 07:21:26;;;;;;;0.00;0.00;;;13.10;70.80;;;;;;4223741;28;20438;-44
2021/04/17 07:23:48;;;;;;;0.15;0.15;;;13.20;70.80;;;;;;4219052;28;20056;-45
2021/04/17 07:26:11;;;;;;;0.00;0.00;;;13.20;70.80;;;;;;4216629;28;20447;-45
2021/04/17 07:28:35;;;;;;;0.00;0.00;;;13.20;70.60;;;;;;4216645;28;20055;-44
2021/04/17 07:30:57;;;;;;;6.82;0.77;;;13.20;70.40;;;;;;4217046;28;20055;-49
2021/04/17 07:33:29;;;;;;;0.15;0.15;;;13.30;70.40;;;;;;4239427;28;20481;-46
2021/04/17 07:35:52;;;;;;;0.32;0.32;;;13.30;70.40;;;;;;4214782;28;20048;-49
2021/04/17 07:38:18;;;;;;;0.00;0.00;;;13.30;70.20;;;;;;4190381;28;20076;-44
2021/04/17 07:40:41;;;;;;;0.00;0.00;;;13.30;70.00;;;;;;4199072;28;20043;-45
2021/04/17 07:43:03;;;;;;;1.92;1.67;;;13.30;70.00;;;;;;4196226;28;20047;-47
2021/04/17 07:45:27;;;;;;;0.10;0.10;;;13.30;70.00;;;;;;4201247;28;20141;-44
2021/04/17 07:47:50;;;;;;;0.00;0.00;;;13.30;69.90;;;;;;4205880;28;20127;-43
2021/04/17 07:50:12;;;;;;;0.00;0.00;;;13.30;69.90;;;;;;4205507;28;20055;-44
2021/04/17 07:52:36;;;;;;;0.00;0.00;;;13.30;69.80;;;;;;4206639;28;20052;-46
2021/04/17 07:55:07;;;;;;;0.00;0.00;;;13.30;69.70;;;;;;4219157;28;20052;-47
2021/04/17 07:57:31;;;;;;;0.00;0.00;;;13.30;69.70;;;;;;4208152;28;20052;-47
2021/04/17 07:59:52;;;;;;;0.00;0.00;;;13.30;69.70;;;;;;4214191;28;20048;-53
2021/04/17 08:02:14;;;;;;;;;;;13.30;69.70;;;;;;4207675;28;20112;-49
2021/04/17 08:04:36;;;;;;;;;;;13.40;69.80;;;;;;4214521;28;19962;-44
2021/04/17 08:06:59;;;;;;;0.00;0.00;;;13.30;69.40;;;;;;4189780;28;19939;-46
2021/04/17 08:09:25;;;;;;;0.00;0.00;;;13.40;69.30;;;;;;4198006;28;20055;-45
2021/04/17 08:11:48;;;;;;;1.00;0.93;;;13.40;68.80;;;;;;4194816;28;20056;-46
2021/04/17 08:14:10;;;;;;;0.00;0.00;;;13.40;68.60;;;;;;4207305;28;20063;-44
2021/04/17 08:16:31;;;;;;;0.30;0.30;;;13.40;68.40;;;;;;4212014;28;20040;-44
2021/04/17 08:18:52;;;;;;;0.00;0.00;;;13.30;68.00;;;;;;4206585;28;20117;-43
2021/04/17 08:21:16;;;;;;;0.00;0.00;;;13.40;68.00;;;;;;4215567;28;20052;-44
2021/04/17 08:23:39;;;;;;;0.00;0.00;;;13.30;67.70;;;;;;4219572;28;20070;-44
2021/04/17 08:26:00;;;;;;;0.00;0.00;;;13.30;67.60;;;;;;4224476;28;20043;-45
2021/04/17 08:28:22;;;;;;;;;;;13.30;67.30;;;;;;4223380;28;20043;-44
2021/04/17 08:30:43;;;;;;;0.00;0.00;;;13.30;67.10;;;;;;4225495;27;20438;-45
2021/04/17 08:33:13;;;;;;;0.00;0.00;;;13.30;67.10;;;;;;4216059;28;20127;-44
2021/04/17 08:35:38;;;;;;;0.05;0.05;;;13.30;67.00;;;;;;4192992;28;20455;-44
2021/04/17 08:38:07;;;;;;;0.05;0.05;;;13.30;67.00;;;;;;4215451;28;20499;-47
2021/04/17 08:40:46;;;;;;;0.20;0.20;;;13.30;67.00;;;;;;4225329;27;20044;-44
2021/04/17 08:43:41;;;;;;;0.00;0.00;;;13.30;67.00;;;;;;4225685;27;20047;-44
2021/04/17 08:46:14;;;;;;;1.27;1.17;;;13.30;67.00;;;;;;4226094;28;20101;-46
2021/04/17 08:48:48;;;;;;;0.10;0.10;;;13.40;67.10;;;;;;4197628;28;20056;-44
2021/04/17 08:51:32;;;;;;;0.05;0.05;;;13.40;67.00;;;;;;4192732;28;20048;-47
2021/04/17 08:54:20;;;;;;;0.00;0.00;;;13.40;66.80;;;;;;4208791;28;20044;-44
2021/04/17 08:56:50;;;;;;;0.45;0.45;;;13.40;66.80;;;;;;4219751;28;20040;-44
2021/04/17 08:59:11;;;;;;;0.00;0.00;;;13.50;66.70;;;;;;4213966;28;20048;-44
2021/04/17 09:01:39;;;;;;;0.20;0.20;;;13.50;66.40;;;;;;4225245;28;20062;-45
2021/04/17 09:04:09;;;;;;;0.00;0.00;;;13.40;66.50;;;;;;4225643;28;20036;-44
2021/04/17 09:06:42;;;;;;;0.28;0.28;;;13.50;66.20;;;;;;4225672;28;20070;-47
2021/04/17 09:09:30;;;;;;;0.00;0.00;;;13.50;65.40;;;;;;4216416;28;20092;-44
2021/04/17 09:11:52;;;;;;;0.55;0.55;;;13.50;64.70;;;;;;4206740;28;20596;-48
2021/04/17 09:14:46;;;;;;;0.45;0.45;;;13.60;64.10;;;;;;4208733;28;20501;-48
2021/04/17 09:17:28;;;;;;;0.10;0.10;;;13.50;63.60;;;;;;4208902;28;20040;-44
2021/04/17 09:19:52;;;;;;;0.00;0.00;;;13.60;63.30;;;;;;4210291;28;20627;-46
2021/04/17 09:22:44;;;;;;;0.45;0.45;;;13.60;63.20;;;;;;4210704;28;20040;-46
2021/04/17 09:25:07;;;;;;;;;;;13.60;63.00;;;;;;4209709;28;20588;-45
2021/04/17 09:27:29;;;;;;;0.10;0.10;;;13.70;62.70;;;;;;4216048;28;20465;-47
2021/04/17 09:29:56;;;;;;;0.17;0.17;;;13.70;62.50;;;;;;4203158;28;20143;-47
2021/04/17 09:32:17;;;;;;;0.10;0.10;;;13.70;61.90;;;;;;4208830;28;20048;-43
2021/04/17 09:34:38;;;;;;;2.63;1.17;;;13.70;61.80;;;;;;4208879;28;20093;-44
2021/04/17 09:37:09;;;;;;;13.95;1.75;;;13.70;61.80;;;;;;4208004;28;20048;-45
2021/04/17 09:39:32;;;;;;;1.08;0.98;;;13.70;61.50;;;;;;4224625;28;20478;-44
2021/04/17 09:41:56;;;;;;;0.00;0.00;;;13.70;61.50;;;;;;4225457;28;20044;-44
2021/04/17 09:44:18;;;;;;;0.93;0.93;;;13.80;61.60;;;;;;4225393;28;20062;-44
2021/04/17 09:46:39;;;;;;;0.20;0.20;;;13.80;61.40;;;;;;4224995;28;20126;-45
2021/04/17 09:49:01;;;;;;;0.43;0.43;;;13.80;61.40;;;;;;4208161;28;20166;-45
2021/04/17 09:51:23;;;;;;;0.17;0.17;;;13.80;60.70;;;;;;4225264;28;20051;-44
2021/04/17 09:53:45;;;;;;;0.00;0.00;;;13.80;61.50;;;;;;4225565;28;20511;-44
2021/04/17 09:56:07;;;;;;;;;;;13.90;62.00;;;;;;4225999;28;20637;-46
2021/04/17 09:58:32;;;;;;;0.10;0.10;;;13.90;62.20;;;;;;4214927;28;19924;-47
2021/04/17 10:00:55;;;;;;;0.00;0.00;;;14.00;63.20;;;;;;4221088;28;20044;-48
2021/04/17 10:03:28;;;;;;;2.83;1.67;;;14.00;63.20;;;;;;4225292;28;20057;-44
2021/04/17 10:05:49;;;;;;;0.50;0.50;;;14.00;63.00;;;;;;4219312;28;20048;-43
2021/04/17 10:08:26;;;;;;;0.08;0.08;;;14.00;63.60;;;;;;4205687;27;20040;-43
2021/04/17 10:10:47;;;;;;;0.40;0.40;;;14.00;62.40;;;;;;4191527;28;20102;-45
2021/04/17 10:13:08;;;;;;;0.20;0.20;;;14.00;62.00;;;;;;4208518;28;20052;-48
2021/04/17 10:15:32;;;;;;;0.00;0.00;;;14.10;61.80;;;;;;4225204;28;20050;-47
2021/04/17 10:17:56;;;;;;;0.00;0.00;;;14.10;61.40;;;;;;4207169;28;20079;-44
2021/04/17 10:20:18;;;;;;;0.00;0.00;;;14.10;61.20;;;;;;4208320;28;20136;-44
2021/04/17 10:22:40;;;;;;;0.20;0.20;;;14.10;60.90;;;;;;4208331;28;20051;-45
2021/04/17 10:25:02;;;;;;;0.00;0.00;;;14.10;60.80;;;;;;4208524;28;20418;-44
2021/04/17 10:27:25;;;;;;;0.00;0.00;;;14.10;60.60;;;;;;4207510;28;20048;-44
2021/04/17 10:29:48;;;;;;;0.55;0.55;;;14.20;60.60;;;;;;4204823;28;20060;-46
2021/04/17 10:32:15;;;;;;;1.40;0.38;;;14.20;60.40;;;;;;4207113;28;20557;-44
2021/04/17 10:34:37;;;;;;;0.00;0.00;;;14.20;60.40;;;;;;4204325;28;20497;-44
2021/04/17 10:37:04;;;;;;;0.00;0.00;;;14.20;60.50;;;;;;4217028;28;20158;-43
2021/04/17 10:39:26;;;;;;;0.20;0.20;;;14.20;60.60;;;;;;4217566;28;20493;-44
2021/04/17 10:41:57;;;;;;;0.00;0.00;;;14.20;60.40;;;;;;4212408;28;20652;-43
2021/04/17 10:44:19;;;;;;;5.30;0.57;;;14.20;60.20;;;;;;4190833;28;20052;-44
2021/04/17 10:46:42;;;;;;;0.00;0.00;;;14.20;60.00;;;;;;4207482;28;20139;-44
2021/04/17 10:49:04;;;;;;;1.13;0.80;;;14.20;59.80;;;;;;4223413;28;20056;-45
2021/04/17 10:51:25;;;;;;;0.52;0.28;;;14.20;59.50;;;;;;4198136;28;20047;-44
2021/04/17 10:53:48;;;;;;;0.00;0.00;;;14.20;59.30;;;;;;4212353;28;20051;-45
2021/04/17 10:56:11;;;;;;;0.20;0.20;;;14.20;59.00;;;;;;4207696;28;20052;-44
2021/04/17 10:58:34;;;;;;;0.00;0.00;;;14.20;59.00;;;;;;4207669;28;20048;-46
2021/04/17 11:00:57;;;;;;;0.22;0.22;;;14.20;59.00;;;;;;4205871;28;20052;-46
2021/04/17 11:03:19;;;;;;;0.10;0.10;;;14.20;58.80;;;;;;4205949;28;20047;-45
2021/04/17 11:05:41;;;;;;;0.00;0.00;;;14.30;58.60;;;;;;4207189;28;20044;-49
2021/04/17 11:08:05;;;;;;;0.03;0.03;;;14.20;58.40;;;;;;4218055;28;20268;-44
2021/04/17 11:10:32;;;;;;;0.55;0.55;;;14.20;58.30;;;;;;4220762;28;20052;-46
2021/04/17 11:12:53;;;;;;;0.00;0.00;;;14.20;58.20;;;;;;4217707;28;20047;-46
2021/04/17 11:15:15;;;;;;;;;;;14.20;58.00;;;;;;4201536;28;20048;-45
2021/04/17 11:17:36;;;;;;;0.10;0.10;;;14.20;57.90;;;;;;4189573;28;19928;-46
2021/04/17 11:20:15;;;;;;;0.00;0.00;;;14.20;57.50;;;;;;4192675;28;20040;-45
2021/04/17 11:22:37;;;;;;;0.00;0.00;;;14.30;57.40;;;;;;4222818;28;20063;-45
2021/04/17 11:25:06;;;;;;;0.00;0.00;;;14.20;57.30;;;;;;4222349;28;20067;-45
2021/04/17 11:27:27;;;;;;;0.00;0.00;;;14.20;57.30;;;;;;4223337;28;20047;-45
2021/04/17 11:29:48;;;;;;;0.35;0.35;;;14.20;57.50;;;;;;4216083;28;20136;-44
2021/04/17 11:32:09;;;;;;;0.08;0.08;;;14.20;57.40;;;;;;4222856;28;20075;-45
2021/04/17 11:34:30;;;;;;;0.00;0.00;;;14.20;57.10;;;;;;4223508;28;20051;-44
2021/04/17 11:36:52;;;;;;;0.00;0.00;;;14.20;57.10;;;;;;4223554;28;20047;-44
2021/04/17 11:39:16;;;;;;;0.20;0.20;;;14.20;56.70;;;;;;4222099;28;20048;-44
2021/04/17 11:41:38;;;;;;;0.00;0.00;;;14.20;56.70;;;;;;4222812;28;20126;-44
2021/04/17 11:44:00;;;;;;;0.40;0.40;;;14.20;57.10;;;;;;4193432;28;20114;-47
2021/04/17 11:46:21;;;;;;;0.20;0.20;;;14.20;57.10;;;;;;4197058;28;20047;-45
2021/04/17 11:48:42;;;;;;;;;;;14.20;57.10;;;;;;4224737;28;20051;-46
2021/04/17 11:51:03;;;;;;;0.00;0.00;;;14.20;56.90;;;;;;4241018;28;20377;-44
2021/04/17 11:53:24;;;;;;;4.78;0.70;;;14.20;56.80;;;;;;4192954;28;20672;-45
2021/04/17 11:55:47;;;;;;;1.77;0.75;;;14.20;56.80;;;;;;4206846;28;20059;-45
2021/04/17 11:58:09;;;;;;;0.00;0.00;;;14.30;56.60;;;;;;4192880;28;20432;-45
2021/04/17 12:00:29;;;;;;;1.85;0.85;;;14.30;56.40;;;;;;4211409;28;20055;-44
2021/04/17 12:02:50;;;;;;;0.00;0.00;;;14.30;56.30;;;;;;4205284;28;20059;-46
2021/04/17 12:05:12;;;;;;;0.00;0.00;;;14.40;56.40;;;;;;4210522;28;20475;-45
2021/04/17 12:07:33;;;;;;;;;;;14.40;56.20;;;;;;4226909;28;20052;-44
2021/04/17 12:09:55;;;;;;;0.00;0.00;;;14.40;56.00;;;;;;4225347;28;19924;-46
2021/04/17 12:12:17;;;;;;;0.00;0.00;;;14.40;55.80;;;;;;4224009;27;20765;-44
2021/04/17 12:14:38;;;;;;;0.32;0.32;;;14.40;55.70;;;;;;4210044;28;20055;-45
2021/04/17 12:16:59;;;;;;;0.22;0.22;;;14.40;55.40;;;;;;4220493;28;20125;-46
2021/04/17 12:19:20;;;;;;;0.25;0.25;;;14.40;55.30;;;;;;4226544;28;20903;-44
2021/04/17 12:21:41;;;;;;;2.33;0.80;;;14.40;55.20;;;;;;4224403;28;20051;-45
2021/04/17 12:24:02;;;;;;;;;;;14.40;55.20;;;;;;4220929;28;20487;-44
2021/04/17 12:26:23;;;;;;;0.05;0.05;;;14.40;54.90;;;;;;4199848;28;19978;-50
2021/04/17 12:28:45;;;;;;;0.00;0.00;;;14.40;54.80;;;;;;4217780;27;20043;-47